createdAt,value
2018-02-21T00:00:15.818Z,1017.00
2018-02-21T00:01:15.760Z,1017.02
2018-02-21T00:02:15.719Z,1017.05
2018-02-21T00:03:15.672Z,1017.07
2018-02-21T00:04:15.655Z,1017.11
2018-02-21T00:05:15.581Z,1017.11
2018-02-21T00:06:15.542Z,1017.17
2018-02-21T00:07:15.496Z,1017.20
2018-02-21T00:08:15.453Z,1017.22
2018-02-21T00:09:15.392Z,1017.28
2018-02-21T00:10:15.374Z,1017.30
2018-02-21T00:11:15.298Z,1017.34
2018-02-21T00:12:15.251Z,1017.33
2018-02-21T00:13:15.213Z,1017.38
2018-02-21T00:14:15.164Z,1017.40
2018-02-21T00:15:15.142Z,1017.32
2018-02-21T00:16:15.074Z,1017.34
2018-02-21T00:17:15.019Z,1017.32
2018-02-21T00:18:14.974Z,1017.30
2018-02-21T00:19:14.934Z,1017.28
2018-02-21T00:20:14.912Z,1017.30
2018-02-21T00:21:14.844Z,1017.26
2018-02-21T00:22:14.784Z,1017.25
2018-02-21T00:23:14.738Z,1017.25
2018-02-21T00:24:14.695Z,1017.26
2018-02-21T00:25:14.673Z,1017.25
2018-02-21T00:26:14.609Z,1017.28
2018-02-21T00:27:14.558Z,1017.30
2018-02-21T00:28:14.515Z,1017.31
2018-02-21T00:29:14.465Z,1017.28
2018-02-21T00:30:14.440Z,1017.33
2018-02-21T00:31:14.375Z,1017.32
2018-02-21T00:32:14.324Z,1017.33
2018-02-21T00:33:14.281Z,1017.35
2018-02-21T00:34:14.235Z,1017.36
2018-02-21T00:35:14.188Z,1017.38
2018-02-21T00:36:14.175Z,1017.36
2018-02-21T00:37:14.104Z,1017.40
2018-02-21T00:38:14.048Z,1017.41
2018-02-21T00:39:14.004Z,1017.40
2018-02-21T00:40:13.959Z,1017.37
2018-02-21T00:41:13.930Z,1017.38
2018-02-21T00:42:13.858Z,1017.36
2018-02-21T00:43:13.814Z,1017.31
2018-02-21T00:44:13.768Z,1017.29
2018-02-21T00:45:13.716Z,1017.28
2018-02-21T00:46:13.696Z,1017.24
2018-02-21T00:47:13.630Z,1017.29
2018-02-21T00:48:13.575Z,1017.30
2018-02-21T00:49:13.541Z,1017.37
2018-02-21T00:50:13.491Z,1017.42
2018-02-21T00:51:13.478Z,1017.40
2018-02-21T00:52:13.391Z,1017.44
2018-02-21T00:53:13.351Z,1017.41
2018-02-21T00:54:13.297Z,1017.46
2018-02-21T00:55:13.258Z,1017.47
2018-02-21T00:56:13.242Z,1017.49
2018-02-21T00:57:13.167Z,1017.47
2018-02-21T00:58:13.114Z,1017.49
2018-02-21T00:59:13.067Z,1017.48
2018-02-21T01:00:13.017Z,1017.49
2018-02-21T01:01:12.973Z,1017.51
2018-02-21T01:02:12.951Z,1017.52
2018-02-21T01:03:12.884Z,1017.57
2018-02-21T01:04:12.835Z,1017.58
2018-02-21T01:05:12.789Z,1017.57
2018-02-21T01:06:12.742Z,1017.60
2018-02-21T01:07:12.718Z,1017.64
2018-02-21T01:08:12.652Z,1017.63
2018-02-21T01:09:12.615Z,1017.66
2018-02-21T01:10:12.557Z,1017.60
2018-02-21T01:11:12.515Z,1017.52
2018-02-21T01:12:12.487Z,1017.54
2018-02-21T01:13:12.408Z,1017.49
2018-02-21T01:14:12.374Z,1017.48
2018-02-21T01:15:12.320Z,1017.46
2018-02-21T01:16:12.274Z,1017.42
2018-02-21T01:17:12.263Z,1017.39
2018-02-21T01:18:12.185Z,1017.35
2018-02-21T01:19:12.144Z,1017.34
2018-02-21T01:20:12.083Z,1017.34
2018-02-21T01:21:12.035Z,1017.34
2018-02-21T01:22:12.000Z,1017.31
2018-02-21T01:23:11.977Z,1017.25
2018-02-21T01:24:11.897Z,1017.25
2018-02-21T01:25:11.856Z,1017.23
2018-02-21T01:26:11.808Z,1017.20
2018-02-21T01:27:11.760Z,1017.24
2018-02-21T01:28:11.733Z,1017.20
2018-02-21T01:29:11.673Z,1017.24
2018-02-21T01:30:11.628Z,1017.21
2018-02-21T01:31:11.587Z,1017.27
2018-02-21T01:32:11.537Z,1017.24
2018-02-21T01:33:11.501Z,1017.27
2018-02-21T01:34:11.437Z,1017.24
2018-02-21T01:35:11.393Z,1017.24
2018-02-21T01:36:11.344Z,1017.26
2018-02-21T01:37:11.297Z,1017.23
2018-02-21T01:38:11.273Z,1017.19
2018-02-21T01:39:11.205Z,1017.16
2018-02-21T01:40:11.152Z,1017.18
2018-02-21T01:41:11.114Z,1017.19
2018-02-21T01:42:11.059Z,1017.16
2018-02-21T01:43:11.045Z,1017.14
2018-02-21T01:44:10.975Z,1017.16
2018-02-21T01:45:10.924Z,1017.18
2018-02-21T01:46:10.880Z,1017.21
2018-02-21T01:47:10.824Z,1017.25
2018-02-21T01:48:10.802Z,1017.25
2018-02-21T01:49:10.739Z,1017.27
2018-02-21T01:50:10.686Z,1017.29
2018-02-21T01:51:10.644Z,1017.31
2018-02-21T01:52:10.593Z,1017.36
2018-02-21T01:53:10.585Z,1017.34
2018-02-21T01:54:10.523Z,1017.34
2018-02-21T01:55:10.462Z,1017.26
2018-02-21T01:56:10.406Z,1017.25
2018-02-21T01:57:10.371Z,1017.24
2018-02-21T01:58:10.320Z,1017.18
2018-02-21T01:59:10.294Z,1017.16
2018-02-21T02:00:10.233Z,1017.17
2018-02-21T02:01:10.175Z,1017.14
2018-02-21T02:02:10.126Z,1017.11
2018-02-21T02:03:10.076Z,1017.11
2018-02-21T02:04:10.062Z,1017.10
2018-02-21T02:05:09.992Z,1017.11
2018-02-21T02:06:09.938Z,1017.14
2018-02-21T02:07:09.893Z,1017.14
2018-02-21T02:08:09.850Z,1017.13
2018-02-21T02:09:09.832Z,1017.10
2018-02-21T02:10:09.754Z,1017.11
2018-02-21T02:11:09.708Z,1017.05
2018-02-21T02:12:09.664Z,1017.10
2018-02-21T02:13:09.613Z,1017.07
2018-02-21T02:14:09.594Z,1017.08
2018-02-21T02:15:09.526Z,1017.13
2018-02-21T02:16:09.484Z,1017.15
2018-02-21T02:17:09.435Z,1017.19
2018-02-21T02:18:09.386Z,1017.21
2018-02-21T02:19:09.379Z,1017.28
2018-02-21T02:20:09.291Z,1017.29
2018-02-21T02:21:09.248Z,1017.35
2018-02-21T02:22:09.207Z,1017.39
2018-02-21T02:23:09.161Z,1017.39
2018-02-21T02:24:09.102Z,1017.37
2018-02-21T02:25:09.076Z,1017.39
2018-02-21T02:26:09.006Z,1017.40
2018-02-21T02:27:08.966Z,1017.38
2018-02-21T02:28:08.915Z,1017.41
2018-02-21T02:29:08.873Z,1017.40
2018-02-21T02:30:08.840Z,1017.36
2018-02-21T02:31:08.772Z,1017.34
2018-02-21T02:32:08.729Z,1017.34
2018-02-21T02:33:08.683Z,1017.32
2018-02-21T02:34:08.633Z,1017.32
2018-02-21T02:35:08.632Z,1017.33
2018-02-21T02:36:08.549Z,1017.33
2018-02-21T02:37:08.506Z,1017.29
2018-02-21T02:38:08.462Z,1017.37
2018-02-21T02:39:08.411Z,1017.33
2018-02-21T02:40:08.385Z,1017.35
2018-02-21T02:41:08.308Z,1017.37
2018-02-21T02:42:08.263Z,1017.43
2018-02-21T02:43:08.213Z,1017.43
2018-02-21T02:44:08.167Z,1017.41
2018-02-21T02:45:08.148Z,1017.42
2018-02-21T02:46:08.079Z,1017.41
2018-02-21T02:47:08.046Z,1017.41
2018-02-21T02:48:07.990Z,1017.43
2018-02-21T02:49:07.945Z,1017.46
2018-02-21T02:50:07.895Z,1017.46
2018-02-21T02:51:07.863Z,1017.49
2018-02-21T02:52:07.801Z,1017.53
2018-02-21T02:53:07.755Z,1017.60
2018-02-21T02:54:07.712Z,1017.62
2018-02-21T02:55:07.657Z,1017.65
2018-02-21T02:56:07.637Z,1017.67
2018-02-21T02:57:07.560Z,1017.73
2018-02-21T02:58:07.516Z,1017.77
2018-02-21T02:59:07.472Z,1017.76
2018-02-21T03:00:07.426Z,1017.76
2018-02-21T03:01:07.400Z,1017.75
2018-02-21T03:02:07.344Z,1017.77
2018-02-21T03:03:07.285Z,1017.76
2018-02-21T03:04:07.242Z,1017.77
2018-02-21T03:05:07.189Z,1017.74
2018-02-21T03:06:07.171Z,1017.79
2018-02-21T03:07:07.093Z,1017.83
2018-02-21T03:08:07.054Z,1017.84
2018-02-21T03:09:07.019Z,1017.89
2018-02-21T03:10:06.959Z,1017.89
2018-02-21T03:11:06.950Z,1017.93
2018-02-21T03:12:06.865Z,1017.94
2018-02-21T03:13:06.836Z,1017.96
2018-02-21T03:14:06.769Z,1017.96
2018-02-21T03:15:06.730Z,1017.97
2018-02-21T03:16:06.682Z,1017.95
2018-02-21T03:17:06.653Z,1017.94
2018-02-21T03:18:06.589Z,1018.01
2018-02-21T03:19:06.545Z,1017.97
2018-02-21T03:20:06.499Z,1017.96
2018-02-21T03:21:06.446Z,1017.95
2018-02-21T03:22:06.430Z,1017.95
2018-02-21T03:23:06.360Z,1017.95
2018-02-21T03:24:06.306Z,1017.98
2018-02-21T03:25:06.275Z,1017.92
2018-02-21T03:26:06.220Z,1017.95
2018-02-21T03:27:06.197Z,1017.98
2018-02-21T03:28:06.126Z,1017.98
2018-02-21T03:29:06.079Z,1018.02
2018-02-21T03:30:06.031Z,1018.06
2018-02-21T03:31:05.992Z,1018.12
2018-02-21T03:32:05.973Z,1018.10
2018-02-21T03:33:05.897Z,1018.09
2018-02-21T03:34:05.855Z,1018.11
2018-02-21T03:35:05.802Z,1018.15
2018-02-21T03:36:05.761Z,1018.13
2018-02-21T03:37:05.716Z,1018.14
2018-02-21T03:38:05.685Z,1018.15
2018-02-21T03:39:05.619Z,1018.11
2018-02-21T03:40:05.586Z,1018.13
2018-02-21T03:41:05.534Z,1018.17
2018-02-21T03:42:05.479Z,1018.17
2018-02-21T03:43:05.464Z,1018.16
2018-02-21T03:44:05.390Z,1018.16
2018-02-21T03:45:05.350Z,1018.14
2018-02-21T03:46:05.296Z,1018.12
2018-02-21T03:47:05.267Z,1018.13
2018-02-21T03:48:05.242Z,1018.09
2018-02-21T03:49:05.167Z,1018.12
2018-02-21T03:50:05.119Z,1018.13
2018-02-21T03:51:05.081Z,1018.13
2018-02-21T03:52:05.028Z,1018.16
2018-02-21T03:53:04.999Z,1018.11
2018-02-21T03:54:04.927Z,1018.14
2018-02-21T03:55:04.889Z,1018.18
2018-02-21T03:56:04.838Z,1018.13
2018-02-21T03:57:04.800Z,1018.16
2018-02-21T03:58:04.783Z,1018.17
2018-02-21T03:59:04.707Z,1018.23
2018-02-21T04:00:04.663Z,1018.26
2018-02-21T04:01:04.605Z,1018.25
2018-02-21T04:02:04.568Z,1018.32
2018-02-21T04:03:04.519Z,1018.31
2018-02-21T04:04:04.502Z,1018.31
2018-02-21T04:05:04.432Z,1018.38
2018-02-21T04:06:04.387Z,1018.42
2018-02-21T04:07:04.336Z,1018.42
2018-02-21T04:08:04.292Z,1018.43
2018-02-21T04:09:04.288Z,1018.37
2018-02-21T04:10:04.203Z,1018.40
2018-02-21T04:11:04.163Z,1018.37
2018-02-21T04:12:04.115Z,1018.47
2018-02-21T04:13:04.061Z,1018.48
2018-02-21T04:14:04.049Z,1018.54
2018-02-21T04:15:03.972Z,1018.56
2018-02-21T04:16:03.935Z,1018.59
2018-02-21T04:17:03.879Z,1018.60
2018-02-21T04:18:03.838Z,1018.63
2018-02-21T04:19:03.814Z,1018.62
2018-02-21T04:20:03.750Z,1018.61
2018-02-21T04:21:03.702Z,1018.59
2018-02-21T04:22:03.655Z,1018.60
2018-02-21T04:23:03.612Z,1018.62
2018-02-21T04:24:03.591Z,1018.61
2018-02-21T04:25:03.539Z,1018.63
2018-02-21T04:26:03.468Z,1018.59
2018-02-21T04:27:03.420Z,1018.63
2018-02-21T04:28:03.379Z,1018.62
2018-02-21T04:29:03.332Z,1018.65
2018-02-21T04:30:03.318Z,1018.61
2018-02-21T04:31:03.240Z,1018.69
2018-02-21T04:32:03.209Z,1018.72
2018-02-21T04:33:03.156Z,1018.67
2018-02-21T04:34:03.110Z,1018.68
2018-02-21T04:35:03.081Z,1018.70
2018-02-21T04:36:03.020Z,1018.69
2018-02-21T04:37:02.968Z,1018.67
2018-02-21T04:38:02.929Z,1018.64
2018-02-21T04:39:02.884Z,1018.67
2018-02-21T04:40:02.863Z,1018.69
2018-02-21T04:41:02.788Z,1018.70
2018-02-21T04:42:02.757Z,1018.68
2018-02-21T04:43:02.699Z,1018.66
2018-02-21T04:44:02.655Z,1018.69
2018-02-21T04:45:02.634Z,1018.67
2018-02-21T04:46:02.565Z,1018.68
2018-02-21T04:47:02.520Z,1018.66
2018-02-21T04:48:02.476Z,1018.69
2018-02-21T04:49:02.430Z,1018.71
2018-02-21T04:50:02.379Z,1018.71
2018-02-21T04:51:02.364Z,1018.67
2018-02-21T04:52:02.284Z,1018.68
2018-02-21T04:53:02.261Z,1018.64
2018-02-21T04:54:02.197Z,1018.65
2018-02-21T04:55:02.163Z,1018.58
2018-02-21T04:56:02.142Z,1018.58
2018-02-21T04:57:02.065Z,1018.60
2018-02-21T04:58:02.011Z,1018.56
2018-02-21T04:59:01.974Z,1018.57
2018-02-21T05:00:01.922Z,1018.50
2018-02-21T05:01:01.909Z,1018.50
2018-02-21T05:02:01.843Z,1018.48
2018-02-21T05:03:01.789Z,1018.48
2018-02-21T05:04:01.742Z,1018.45
2018-02-21T05:05:01.698Z,1018.41
2018-02-21T05:06:01.674Z,1018.43
2018-02-21T05:07:01.614Z,1018.40
2018-02-21T05:08:01.568Z,1018.46
2018-02-21T05:09:01.517Z,1018.48
2018-02-21T05:10:01.477Z,1018.45
2018-02-21T05:11:01.454Z,1018.47
2018-02-21T05:12:01.394Z,1018.49
2018-02-21T05:13:01.337Z,1018.49
2018-02-21T05:14:01.294Z,1018.49
2018-02-21T05:15:01.258Z,1018.44
2018-02-21T05:16:01.228Z,1018.45
2018-02-21T05:17:01.159Z,1018.44
2018-02-21T05:18:01.117Z,1018.42
2018-02-21T05:19:01.066Z,1018.45
2018-02-21T05:20:01.029Z,1018.44
2018-02-21T05:21:00.975Z,1018.40
2018-02-21T05:22:00.959Z,1018.37
2018-02-21T05:23:00.885Z,1018.38
2018-02-21T05:24:00.881Z,1018.40
2018-02-21T05:25:00.801Z,1018.44
2018-02-21T05:26:00.752Z,1018.39
2018-02-21T05:27:00.736Z,1018.41
2018-02-21T05:28:00.660Z,1018.43
2018-02-21T05:29:00.613Z,1018.44
2018-02-21T05:30:00.565Z,1018.47
2018-02-21T05:31:00.518Z,1018.50
2018-02-21T05:32:00.500Z,1018.53
2018-02-21T05:33:00.431Z,1018.47
2018-02-21T05:34:00.388Z,1018.42
2018-02-21T05:35:00.345Z,1018.45
2018-02-21T05:36:00.302Z,1018.38
2018-02-21T05:37:00.282Z,1018.38
2018-02-21T05:38:00.211Z,1018.38
2018-02-21T05:39:00.158Z,1018.42
2018-02-21T05:40:00.119Z,1018.41
2018-02-21T05:41:00.072Z,1018.41
2018-02-21T05:42:00.063Z,1018.48
2018-02-21T05:42:59.986Z,1018.45
2018-02-21T05:43:59.934Z,1018.50
2018-02-21T05:44:59.887Z,1018.49
2018-02-21T05:45:59.878Z,1018.52
2018-02-21T05:46:59.803Z,1018.55
2018-02-21T05:47:59.777Z,1018.54
2018-02-21T05:48:59.716Z,1018.50
2018-02-21T05:49:59.669Z,1018.52
2018-02-21T05:50:59.624Z,1018.47
2018-02-21T05:51:59.582Z,1018.44
2018-02-21T05:52:59.554Z,1018.42
2018-02-21T05:53:59.484Z,1018.41
2018-02-21T05:54:59.436Z,1018.43
2018-02-21T05:55:59.402Z,1018.39
2018-02-21T05:56:59.351Z,1018.41
2018-02-21T05:57:59.331Z,1018.40
2018-02-21T05:58:59.258Z,1018.42
2018-02-21T05:59:59.217Z,1018.42
2018-02-21T06:00:59.176Z,1018.44
2018-02-21T06:01:59.128Z,1018.41
2018-02-21T06:02:59.111Z,1018.44
2018-02-21T06:03:59.046Z,1018.47
2018-02-21T06:04:58.994Z,1018.43
2018-02-21T06:05:58.953Z,1018.44
2018-02-21T06:06:58.899Z,1018.46
2018-02-21T06:07:58.848Z,1018.43
2018-02-21T06:08:58.828Z,1018.47
2018-02-21T06:09:58.759Z,1018.46
2018-02-21T06:10:58.727Z,1018.48
2018-02-21T06:11:58.675Z,1018.49
2018-02-21T06:12:58.635Z,1018.46
2018-02-21T06:13:58.606Z,1018.49
2018-02-21T06:14:58.537Z,1018.47
2018-02-21T06:15:58.493Z,1018.52
2018-02-21T06:16:58.450Z,1018.56
2018-02-21T06:17:58.395Z,1018.59
2018-02-21T06:18:58.374Z,1018.60
2018-02-21T06:19:58.324Z,1018.66
2018-02-21T06:20:58.269Z,1018.66
2018-02-21T06:21:58.226Z,1018.69
2018-02-21T06:22:58.172Z,1018.74
2018-02-21T06:23:58.142Z,1018.77
2018-02-21T06:24:58.081Z,1018.82
2018-02-21T06:25:58.030Z,1018.83
2018-02-21T06:26:57.988Z,1018.86
2018-02-21T06:27:57.936Z,1018.82
2018-02-21T06:28:57.935Z,1018.85
2018-02-21T06:29:57.850Z,1018.81
2018-02-21T06:30:57.807Z,1018.84
2018-02-21T06:31:57.758Z,1018.85
2018-02-21T06:32:57.712Z,1018.83
2018-02-21T06:33:57.659Z,1018.88
2018-02-21T06:34:57.632Z,1018.89
2018-02-21T06:35:57.565Z,1018.94
2018-02-21T06:36:57.524Z,1018.94
2018-02-21T06:37:57.475Z,1018.98
2018-02-21T06:38:57.436Z,1018.97
2018-02-21T06:39:57.412Z,1018.98
2018-02-21T06:40:57.339Z,1018.99
2018-02-21T06:41:57.295Z,1018.97
2018-02-21T06:42:57.245Z,1018.95
2018-02-21T06:43:57.200Z,1019.04
2018-02-21T06:44:57.183Z,1019.04
2018-02-21T06:45:57.116Z,1019.07
2018-02-21T06:46:57.064Z,1019.08
2018-02-21T06:47:57.012Z,1019.09
2018-02-21T06:48:56.965Z,1019.10
2018-02-21T06:49:56.951Z,1019.06
2018-02-21T06:50:56.881Z,1019.08
2018-02-21T06:51:56.824Z,1019.10
2018-02-21T06:52:56.794Z,1019.08
2018-02-21T06:53:56.739Z,1019.08
2018-02-21T06:54:56.718Z,1019.06
2018-02-21T06:55:56.653Z,1019.08
2018-02-21T06:56:56.609Z,1019.08
2018-02-21T06:57:56.555Z,1019.10
2018-02-21T06:58:56.498Z,1019.11
2018-02-21T06:59:56.464Z,1019.15
2018-02-21T07:00:56.442Z,1019.15
2018-02-21T07:01:56.374Z,1019.15
2018-02-21T07:02:56.325Z,1019.16
2018-02-21T07:03:57.051Z,1019.17
2018-02-21T07:04:56.229Z,1019.18
2018-02-21T07:05:56.206Z,1019.22
2018-02-21T07:06:56.143Z,1019.25
2018-02-21T07:07:56.096Z,1019.27
2018-02-21T07:08:56.044Z,1019.32
2018-02-21T07:09:56.007Z,1019.31
2018-02-21T07:10:55.986Z,1019.26
2018-02-21T07:11:55.912Z,1019.20
2018-02-21T07:12:55.866Z,1019.17
2018-02-21T07:13:55.822Z,1019.17
2018-02-21T07:14:55.772Z,1019.18
2018-02-21T07:15:55.753Z,1019.18
2018-02-21T07:16:55.691Z,1019.19
2018-02-21T07:17:55.640Z,1019.18
2018-02-21T07:18:55.602Z,1019.19
2018-02-21T07:19:55.544Z,1019.21
2018-02-21T07:20:55.507Z,1019.23
2018-02-21T07:21:55.478Z,1019.24
2018-02-21T07:22:55.420Z,1019.23
2018-02-21T07:23:55.365Z,1019.18
2018-02-21T07:24:55.324Z,1019.17
2018-02-21T07:25:55.282Z,1019.15
2018-02-21T07:26:55.273Z,1019.17
2018-02-21T07:27:55.196Z,1019.17
2018-02-21T07:28:55.144Z,1019.23
2018-02-21T07:29:55.106Z,1019.20
2018-02-21T07:30:55.108Z,1019.21
2018-02-21T07:31:55.039Z,1019.18
2018-02-21T07:32:54.983Z,1019.15
2018-02-21T07:33:54.928Z,1019.17
2018-02-21T07:34:54.882Z,1019.21
2018-02-21T07:35:54.838Z,1019.17
2018-02-21T07:36:54.838Z,1019.13
2018-02-21T07:37:54.749Z,1019.17
2018-02-21T07:38:54.711Z,1019.16
2018-02-21T07:39:54.669Z,1019.21
2018-02-21T07:40:54.627Z,1019.18
2018-02-21T07:41:54.572Z,1019.24
2018-02-21T07:42:54.564Z,1019.25
2018-02-21T07:43:54.506Z,1019.29
2018-02-21T07:44:54.451Z,1019.33
2018-02-21T07:45:54.401Z,1019.30
2018-02-21T07:46:54.357Z,1019.33
2018-02-21T07:47:54.338Z,1019.31
2018-02-21T07:48:54.289Z,1019.30
2018-02-21T07:49:54.237Z,1019.28
2018-02-21T07:50:54.197Z,1019.28
2018-02-21T07:51:54.163Z,1019.30
2018-02-21T07:52:54.147Z,1019.29
2018-02-21T07:53:54.077Z,1019.33
2018-02-21T07:54:54.030Z,1019.33
2018-02-21T07:55:53.980Z,1019.38
2018-02-21T07:56:53.940Z,1019.39
2018-02-21T07:57:53.919Z,1019.43
2018-02-21T07:58:53.863Z,1019.39
2018-02-21T07:59:53.814Z,1019.40
2018-02-21T08:00:53.805Z,1019.43
2018-02-21T08:01:53.740Z,1019.38
2018-02-21T08:02:53.723Z,1019.44
2018-02-21T08:03:53.650Z,1019.46
2018-02-21T08:04:53.611Z,1019.44
2018-02-21T08:05:53.571Z,1019.48
2018-02-21T08:06:53.538Z,1019.45
2018-02-21T08:07:53.516Z,1019.47
2018-02-21T08:08:53.448Z,1019.53
2018-02-21T08:09:53.401Z,1019.51
2018-02-21T08:10:53.360Z,1019.49
2018-02-21T08:11:53.321Z,1019.52
2018-02-21T08:12:53.286Z,1019.52
2018-02-21T08:13:53.260Z,1019.56
2018-02-21T08:14:53.213Z,1019.52
2018-02-21T08:15:53.163Z,1019.54
2018-02-21T08:16:53.124Z,1019.53
2018-02-21T08:17:53.082Z,1019.51
2018-02-21T08:18:53.061Z,1019.52
2018-02-21T08:19:52.996Z,1019.55
2018-02-21T08:20:52.960Z,1019.51
2018-02-21T08:21:52.924Z,1019.53
2018-02-21T08:22:52.875Z,1019.56
2018-02-21T08:23:52.868Z,1019.56
2018-02-21T08:24:52.806Z,1019.57
2018-02-21T08:25:52.759Z,1019.61
2018-02-21T08:26:52.721Z,1019.58
2018-02-21T08:27:52.693Z,1019.62
2018-02-21T08:28:52.680Z,1019.61
2018-02-21T08:29:52.646Z,1019.61
2018-02-21T08:30:52.565Z,1019.59
2018-02-21T08:31:52.532Z,1019.62
2018-02-21T08:32:52.488Z,1019.64
2018-02-21T08:33:52.482Z,1019.65
2018-02-21T08:34:52.404Z,1019.66
2018-02-21T08:35:52.368Z,1019.61
2018-02-21T08:36:52.339Z,1019.61
2018-02-21T08:37:52.287Z,1019.62
2018-02-21T08:38:52.248Z,1019.63
2018-02-21T08:39:52.232Z,1019.65
2018-02-21T08:40:52.180Z,1019.68
2018-02-21T08:41:52.132Z,1019.71
2018-02-21T08:42:52.108Z,1019.73
2018-02-21T08:43:52.061Z,1019.79
2018-02-21T08:44:52.041Z,1019.75
2018-02-21T08:45:52.686Z,1019.78
2018-02-21T08:46:51.990Z,1019.85
2018-02-21T08:47:51.906Z,1019.85
2018-02-21T08:48:51.866Z,1019.81
2018-02-21T08:49:51.841Z,1019.83
2018-02-21T08:50:51.782Z,1019.76
2018-02-21T08:51:51.749Z,1019.80
2018-02-21T08:52:51.711Z,1019.82
2018-02-21T08:53:51.669Z,1019.83
2018-02-21T08:54:51.658Z,1019.84
2018-02-21T08:55:51.673Z,1019.87
2018-02-21T08:56:51.564Z,1019.85
2018-02-21T08:57:51.518Z,1019.84
2018-02-21T08:58:51.492Z,1019.84
2018-02-21T08:59:51.470Z,1019.89
2018-02-21T09:00:51.401Z,1019.86
2018-02-21T09:01:51.372Z,1019.84
2018-02-21T09:02:51.342Z,1019.83
2018-02-21T09:03:51.300Z,1019.79
2018-02-21T09:04:51.262Z,1019.82
2018-02-21T09:05:51.248Z,1019.89
2018-02-21T09:06:51.188Z,1019.92
2018-02-21T09:07:51.142Z,1019.96
2018-02-21T09:08:51.103Z,1019.93
2018-02-21T09:09:51.067Z,1020.09
2018-02-21T09:10:51.074Z,1020.13
2018-02-21T09:11:51.001Z,1020.23
2018-02-21T09:12:50.966Z,1020.21
2018-02-21T09:13:50.924Z,1020.18
2018-02-21T09:14:50.889Z,1020.16
2018-02-21T09:15:50.869Z,1020.06
2018-02-21T09:16:50.808Z,1020.13
2018-02-21T09:17:50.771Z,1020.11
2018-02-21T09:18:50.735Z,1020.01
2018-02-21T09:19:50.696Z,1019.86
2018-02-21T09:20:50.688Z,1019.81
2018-02-21T09:21:50.622Z,1019.90
2018-02-21T09:22:50.585Z,1019.92
2018-02-21T09:23:50.548Z,1019.97
2018-02-21T09:24:50.513Z,1020.01
2018-02-21T09:25:50.495Z,1019.89
2018-02-21T09:26:50.431Z,1020.03
2018-02-21T09:27:50.401Z,1020.17
2018-02-21T09:28:50.367Z,1020.09
2018-02-21T09:29:50.330Z,1020.17
2018-02-21T09:30:50.287Z,1020.13
2018-02-21T09:31:50.277Z,1020.51
2018-02-21T09:32:50.216Z,1020.54
2018-02-21T09:33:50.189Z,1020.52
2018-02-21T09:34:50.147Z,1020.52
2018-02-21T09:35:50.102Z,1020.27
2018-02-21T09:36:50.090Z,1020.43
2018-02-21T09:37:50.032Z,1020.58
2018-02-21T09:38:49.998Z,1020.61
2018-02-21T09:39:49.955Z,1020.56
2018-02-21T09:40:49.924Z,1020.53
2018-02-21T09:41:49.916Z,1020.45
2018-02-21T09:42:49.852Z,1020.54
2018-02-21T09:43:49.819Z,1020.55
2018-02-21T09:44:49.782Z,1020.53
2018-02-21T09:45:49.748Z,1020.51
2018-02-21T09:46:49.728Z,1020.42
2018-02-21T09:47:49.668Z,1020.44
2018-02-21T09:48:49.632Z,1020.40
2018-02-21T09:49:49.606Z,1020.39
2018-02-21T09:50:49.560Z,1020.43
2018-02-21T09:51:49.532Z,1020.41
2018-02-21T09:52:49.513Z,1020.48
2018-02-21T09:53:49.470Z,1020.46
2018-02-21T09:54:49.422Z,1020.45
2018-02-21T09:55:49.396Z,1020.49
2018-02-21T09:56:49.360Z,1020.50
2018-02-21T09:57:49.346Z,1020.54
2018-02-21T09:58:49.290Z,1020.50
2018-02-21T09:59:49.256Z,1020.55
2018-02-21T10:00:49.208Z,1020.60
2018-02-21T10:01:49.175Z,1020.67
2018-02-21T10:02:49.166Z,1020.70
2018-02-21T10:03:49.113Z,1020.65
2018-02-21T10:04:49.084Z,1020.54
2018-02-21T10:05:49.042Z,1020.76
2018-02-21T10:06:49.008Z,1020.74
2018-02-21T10:07:48.988Z,1020.74
2018-02-21T10:08:48.934Z,1020.75
2018-02-21T10:09:48.890Z,1020.83
2018-02-21T10:10:48.863Z,1020.82
2018-02-21T10:11:48.820Z,1020.84
2018-02-21T10:12:48.820Z,1020.92
2018-02-21T10:13:48.766Z,1020.97
2018-02-21T10:14:48.711Z,1021.01
2018-02-21T10:15:48.678Z,1020.97
2018-02-21T10:16:49.046Z,1020.94
2018-02-21T10:17:48.605Z,1020.59
2018-02-21T10:18:48.602Z,1021.00
2018-02-21T10:19:48.539Z,1021.04
2018-02-21T10:20:48.497Z,1020.98
2018-02-21T10:21:48.471Z,1020.98
2018-02-21T10:22:48.434Z,1021.08
2018-02-21T10:23:48.425Z,1021.15
2018-02-21T10:24:48.359Z,1021.13
2018-02-21T10:25:48.327Z,1021.08
2018-02-21T10:26:48.295Z,1021.16
2018-02-21T10:27:48.264Z,1021.18
2018-02-21T10:28:48.236Z,1021.23
2018-02-21T10:29:48.181Z,1021.23
2018-02-21T10:30:48.142Z,1021.25
2018-02-21T10:31:48.112Z,1021.25
2018-02-21T10:32:48.089Z,1021.21
2018-02-21T10:33:48.070Z,1021.27
2018-02-21T10:34:47.996Z,1021.28
2018-02-21T10:35:47.976Z,1021.23
2018-02-21T10:36:47.933Z,1021.23
2018-02-21T10:37:47.905Z,1021.22
2018-02-21T10:38:47.869Z,1021.19
2018-02-21T10:39:47.849Z,1021.13
2018-02-21T10:40:47.787Z,1021.15
2018-02-21T10:41:47.762Z,1021.11
2018-02-21T10:42:47.734Z,1021.12
2018-02-21T10:43:47.687Z,1021.06
2018-02-21T10:44:47.684Z,1021.11
2018-02-21T10:45:47.623Z,1021.04
2018-02-21T10:46:47.586Z,1021.00
2018-02-21T10:47:47.553Z,1020.96
2018-02-21T10:48:47.517Z,1020.99
2018-02-21T10:49:47.501Z,1021.02
2018-02-21T10:50:47.444Z,1021.01
2018-02-21T10:51:47.414Z,1020.95
2018-02-21T10:52:47.375Z,1020.95
2018-02-21T10:53:47.342Z,1020.93
2018-02-21T10:54:47.333Z,1020.85
2018-02-21T10:55:47.273Z,1020.88
2018-02-21T10:56:47.246Z,1020.82
2018-02-21T10:57:47.201Z,1020.80
2018-02-21T10:58:47.165Z,1020.69
2018-02-21T10:59:47.157Z,1020.74
2018-02-21T11:00:47.101Z,1020.72
2018-02-21T11:01:47.069Z,1020.75
2018-02-21T11:02:47.029Z,1020.72
2018-02-21T11:03:47.012Z,1020.66
2018-02-21T11:04:46.961Z,1020.73
2018-02-21T11:05:46.951Z,1020.77
2018-02-21T11:06:46.898Z,1020.69
2018-02-21T11:07:46.864Z,1020.73
2018-02-21T11:08:46.828Z,1020.73
2018-02-21T11:09:46.794Z,1020.72
2018-02-21T11:10:46.781Z,1020.72
2018-02-21T11:11:46.730Z,1020.68
2018-02-21T11:12:46.688Z,1020.69
2018-02-21T11:13:46.647Z,1020.71
2018-02-21T11:14:46.616Z,1020.73
2018-02-21T11:15:46.615Z,1020.70
2018-02-21T11:16:46.556Z,1020.78
2018-02-21T11:17:46.519Z,1020.71
2018-02-21T11:18:46.486Z,1020.80
2018-02-21T11:19:46.448Z,1020.77
2018-02-21T11:20:46.435Z,1020.75
2018-02-21T11:21:46.375Z,1020.70
2018-02-21T11:22:46.339Z,1020.71
2018-02-21T11:23:46.304Z,1020.77
2018-02-21T11:24:46.277Z,1020.77
2018-02-21T11:25:46.262Z,1020.73
2018-02-21T11:26:46.207Z,1020.76
2018-02-21T11:27:46.183Z,1020.84
2018-02-21T11:28:46.139Z,1020.79
2018-02-21T11:29:46.105Z,1020.72
2018-02-21T11:30:46.099Z,1020.75
2018-02-21T11:31:46.052Z,1020.74
2018-02-21T11:32:46.001Z,1020.70
2018-02-21T11:33:45.958Z,1020.68
2018-02-21T11:34:45.928Z,1020.66
2018-02-21T11:35:45.902Z,1020.74
2018-02-21T11:36:45.917Z,1020.75
2018-02-21T11:37:45.861Z,1020.70
2018-02-21T11:38:45.789Z,1020.64
2018-02-21T11:39:45.781Z,1020.60
2018-02-21T11:40:45.738Z,1020.57
2018-02-21T11:41:45.714Z,1020.56
2018-02-21T11:42:45.663Z,1020.60
2018-02-21T11:43:45.614Z,1020.50
2018-02-21T11:44:45.577Z,1020.52
2018-02-21T11:45:45.545Z,1020.58
2018-02-21T11:46:45.537Z,1020.49
2018-02-21T11:47:45.476Z,1020.55
2018-02-21T11:48:45.462Z,1020.53
2018-02-21T11:49:45.402Z,1020.58
2018-02-21T11:50:45.366Z,1020.60
2018-02-21T11:51:45.329Z,1020.58
2018-02-21T11:52:45.325Z,1020.61
2018-02-21T11:53:45.257Z,1020.62
2018-02-21T11:54:45.236Z,1020.65
2018-02-21T11:55:45.197Z,1020.55
2018-02-21T11:56:45.163Z,1020.50
2018-02-21T11:57:45.152Z,1020.51
2018-02-21T11:58:45.085Z,1020.52
2018-02-21T11:59:45.053Z,1020.58
2018-02-21T12:00:45.015Z,1020.46
2018-02-21T12:01:44.983Z,1020.43
2018-02-21T12:02:44.973Z,1020.45
2018-02-21T12:03:44.919Z,1020.46
2018-02-21T12:04:44.881Z,1020.41